sensor_id;sensor_type;location;lat;lon;timestamp;temperature;humidity
12977;DHT22;6553;48.412;9.514;2022-09-09T00:01:52;22.70;69.80
12977;DHT22;6553;48.412;9.514;2022-09-09T00:04:32;22.80;69.90
12977;DHT22;6553;48.412;9.514;2022-09-09T00:09:52;22.70;69.80
12977;DHT22;6553;48.412;9.514;2022-09-09T00:15:59;22.70;69.90
12977;DHT22;6553;48.412;9.514;2022-09-09T00:18:55;22.70;69.80
12977;DHT22;6553;48.412;9.514;2022-09-09T00:21:37;22.70;69.80
12977;DHT22;6553;48.412;9.514;2022-09-09T00:24:39;22.70;69.80
12977;DHT22;6553;48.412;9.514;2022-09-09T00:30:19;22.70;69.70
12977;DHT22;6553;48.412;9.514;2022-09-09T00:32:59;22.70;69.80
12977;DHT22;6553;48.412;9.514;2022-09-09T00:35:36;22.70;69.80
12977;DHT22;6553;48.412;9.514;2022-09-09T00:40:53;22.70;69.80
12977;DHT22;6553;48.412;9.514;2022-09-09T00:43:31;22.70;69.90
12977;DHT22;6553;48.412;9.514;2022-09-09T00:48:54;22.70;69.70
12977;DHT22;6553;48.412;9.514;2022-09-09T00:52:08;22.70;69.80
12977;DHT22;6553;48.412;9.514;2022-09-09T00:57:58;22.70;69.80
12977;DHT22;6553;48.412;9.514;2022-09-09T01:00:28;22.70;69.80
12977;DHT22;6553;48.412;9.514;2022-09-09T01:11:27;22.70;69.90
12977;DHT22;6553;48.412;9.514;2022-09-09T01:28:52;22.70;69.80
12977;DHT22;6553;48.412;9.514;2022-09-09T01:31:34;22.70;69.80
12977;DHT22;6553;48.412;9.514;2022-09-09T01:34:14;22.70;69.90
12977;DHT22;6553;48.412;9.514;2022-09-09T01:36:46;22.70;69.80
12977;DHT22;6553;48.412;9.514;2022-09-09T01:39:27;22.60;69.70
12977;DHT22;6553;48.412;9.514;2022-09-09T01:42:01;22.60;69.60
12977;DHT22;6553;48.412;9.514;2022-09-09T01:44:28;22.60;69.70
12977;DHT22;6553;48.412;9.514;2022-09-09T01:46:55;22.60;69.70
12977;DHT22;6553;48.412;9.514;2022-09-09T01:49:22;22.60;69.60
12977;DHT22;6553;48.412;9.514;2022-09-09T01:51:52;22.60;69.60
12977;DHT22;6553;48.412;9.514;2022-09-09T01:54:29;22.60;69.60
12977;DHT22;6553;48.412;9.514;2022-09-09T01:57:19;22.60;69.70
12977;DHT22;6553;48.412;9.514;2022-09-09T02:02:59;22.70;69.90
12977;DHT22;6553;48.412;9.514;2022-09-09T02:09:07;22.60;69.70
12977;DHT22;6553;48.412;9.514;2022-09-09T02:11:38;22.60;69.70
12977;DHT22;6553;48.412;9.514;2022-09-09T02:14:26;22.60;69.70
12977;DHT22;6553;48.412;9.514;2022-09-09T02:17:07;22.60;69.80
12977;DHT22;6553;48.412;9.514;2022-09-09T02:19:56;22.60;69.70
12977;DHT22;6553;48.412;9.514;2022-09-09T02:22:42;22.60;69.60
12977;DHT22;6553;48.412;9.514;2022-09-09T02:25:15;22.60;69.70
12977;DHT22;6553;48.412;9.514;2022-09-09T02:27:47;22.60;69.70
12977;DHT22;6553;48.412;9.514;2022-09-09T02:30:16;22.60;69.70
12977;DHT22;6553;48.412;9.514;2022-09-09T02:32:51;22.60;69.80
12977;DHT22;6553;48.412;9.514;2022-09-09T02:35:24;22.60;69.70
12977;DHT22;6553;48.412;9.514;2022-09-09T02:37:54;22.60;69.70
12977;DHT22;6553;48.412;9.514;2022-09-09T02:40:25;22.60;69.70
12977;DHT22;6553;48.412;9.514;2022-09-09T02:42:58;22.60;69.70
12977;DHT22;6553;48.412;9.514;2022-09-09T02:45:31;22.60;69.70
12977;DHT22;6553;48.412;9.514;2022-09-09T02:48:29;22.60;69.70
12977;DHT22;6553;48.412;9.514;2022-09-09T02:51:14;22.60;69.70
12977;DHT22;6553;48.412;9.514;2022-09-09T02:54:02;22.60;69.70
12977;DHT22;6553;48.412;9.514;2022-09-09T02:56:48;22.60;69.70
12977;DHT22;6553;48.412;9.514;2022-09-09T02:59:24;22.60;69.70
12977;DHT22;6553;48.412;9.514;2022-09-09T03:01:52;22.60;69.70
12977;DHT22;6553;48.412;9.514;2022-09-09T03:04:19;22.60;69.70
12977;DHT22;6553;48.412;9.514;2022-09-09T03:06:46;22.60;69.60
12977;DHT22;6553;48.412;9.514;2022-09-09T03:09:17;22.60;69.70
12977;DHT22;6553;48.412;9.514;2022-09-09T03:11:43;22.60;69.70
12977;DHT22;6553;48.412;9.514;2022-09-09T03:14:11;22.60;69.70
12977;DHT22;6553;48.412;9.514;2022-09-09T03:16:37;22.50;69.60
12977;DHT22;6553;48.412;9.514;2022-09-09T03:19:03;22.60;69.80
12977;DHT22;6553;48.412;9.514;2022-09-09T03:21:29;22.60;69.80
12977;DHT22;6553;48.412;9.514;2022-09-09T03:23:55;22.60;69.80
12977;DHT22;6553;48.412;9.514;2022-09-09T03:26:22;22.60;69.80
12977;DHT22;6553;48.412;9.514;2022-09-09T03:28:48;22.60;69.70
12977;DHT22;6553;48.412;9.514;2022-09-09T03:31:18;22.50;69.70
12977;DHT22;6553;48.412;9.514;2022-09-09T03:33:45;22.50;69.70
12977;DHT22;6553;48.412;9.514;2022-09-09T03:36:13;22.50;69.70
12977;DHT22;6553;48.412;9.514;2022-09-09T03:38:41;22.60;69.80
12977;DHT22;6553;48.412;9.514;2022-09-09T03:41:07;22.60;69.80
12977;DHT22;6553;48.412;9.514;2022-09-09T03:43:34;22.50;69.70
12977;DHT22;6553;48.412;9.514;2022-09-09T03:46:00;22.50;69.70
12977;DHT22;6553;48.412;9.514;2022-09-09T03:48:28;22.50;69.60
12977;DHT22;6553;48.412;9.514;2022-09-09T03:50:55;22.50;69.60
12977;DHT22;6553;48.412;9.514;2022-09-09T03:53:26;22.50;69.70
12977;DHT22;6553;48.412;9.514;2022-09-09T03:55:54;22.50;69.60
12977;DHT22;6553;48.412;9.514;2022-09-09T03:58:24;22.50;69.70
12977;DHT22;6553;48.412;9.514;2022-09-09T04:00:54;22.50;69.60
12977;DHT22;6553;48.412;9.514;2022-09-09T04:03:20;22.50;69.70
12977;DHT22;6553;48.412;9.514;2022-09-09T04:05:48;22.50;69.70
12977;DHT22;6553;48.412;9.514;2022-09-09T04:08:14;22.50;70.40
12977;DHT22;6553;48.412;9.514;2022-09-09T04:10:40;22.50;69.70
12977;DHT22;6553;48.412;9.514;2022-09-09T04:13:07;22.60;69.80
12977;DHT22;6553;48.412;9.514;2022-09-09T04:15:33;22.50;69.70
12977;DHT22;6553;48.412;9.514;2022-09-09T04:18:01;22.50;69.60
12977;DHT22;6553;48.412;9.514;2022-09-09T04:20:27;22.50;69.70
12977;DHT22;6553;48.412;9.514;2022-09-09T04:22:52;22.50;69.70
12977;DHT22;6553;48.412;9.514;2022-09-09T04:25:18;22.50;69.70
12977;DHT22;6553;48.412;9.514;2022-09-09T04:27:44;22.50;69.70
12977;DHT22;6553;48.412;9.514;2022-09-09T04:30:10;22.50;69.70
12977;DHT22;6553;48.412;9.514;2022-09-09T04:32:39;22.50;69.70
12977;DHT22;6553;48.412;9.514;2022-09-09T04:35:05;22.50;69.60
12977;DHT22;6553;48.412;9.514;2022-09-09T04:37:31;22.60;69.80
12977;DHT22;6553;48.412;9.514;2022-09-09T04:39:58;22.50;69.70
12977;DHT22;6553;48.412;9.514;2022-09-09T04:42:30;22.50;69.70
12977;DHT22;6553;48.412;9.514;2022-09-09T04:44:56;22.50;69.70
12977;DHT22;6553;48.412;9.514;2022-09-09T04:47:22;22.50;69.70
12977;DHT22;6553;48.412;9.514;2022-09-09T04:49:48;22.50;69.80
12977;DHT22;6553;48.412;9.514;2022-09-09T04:52:14;22.50;69.80
12977;DHT22;6553;48.412;9.514;2022-09-09T04:54:43;22.50;69.80
12977;DHT22;6553;48.412;9.514;2022-09-09T04:57:10;22.50;69.90
12977;DHT22;6553;48.412;9.514;2022-09-09T04:59:37;22.50;69.90
12977;DHT22;6553;48.412;9.514;2022-09-09T05:02:03;22.50;69.90
12977;DHT22;6553;48.412;9.514;2022-09-09T05:04:29;22.50;70.00
12977;DHT22;6553;48.412;9.514;2022-09-09T05:06:55;22.50;70.00
12977;DHT22;6553;48.412;9.514;2022-09-09T05:09:22;22.50;70.00
12977;DHT22;6553;48.412;9.514;2022-09-09T05:11:50;22.50;69.90
12977;DHT22;6553;48.412;9.514;2022-09-09T05:14:30;22.50;70.00
12977;DHT22;6553;48.412;9.514;2022-09-09T05:16:56;22.50;70.00
12977;DHT22;6553;48.412;9.514;2022-09-09T05:19:23;22.50;70.00
12977;DHT22;6553;48.412;9.514;2022-09-09T05:21:51;22.50;70.00
12977;DHT22;6553;48.412;9.514;2022-09-09T05:24:21;22.50;70.00
12977;DHT22;6553;48.412;9.514;2022-09-09T05:26:51;22.50;70.00
12977;DHT22;6553;48.412;9.514;2022-09-09T05:29:17;22.50;70.00
12977;DHT22;6553;48.412;9.514;2022-09-09T05:31:45;22.50;70.00
12977;DHT22;6553;48.412;9.514;2022-09-09T05:34:16;22.50;70.00
12977;DHT22;6553;48.412;9.514;2022-09-09T05:36:42;22.50;70.00
12977;DHT22;6553;48.412;9.514;2022-09-09T05:39:08;22.50;70.00
12977;DHT22;6553;48.412;9.514;2022-09-09T05:41:34;22.50;70.00
12977;DHT22;6553;48.412;9.514;2022-09-09T05:44:02;22.50;70.00
12977;DHT22;6553;48.412;9.514;2022-09-09T05:46:32;22.50;70.00
12977;DHT22;6553;48.412;9.514;2022-09-09T05:48:58;22.50;70.00
12977;DHT22;6553;48.412;9.514;2022-09-09T05:51:29;22.50;70.00
12977;DHT22;6553;48.412;9.514;2022-09-09T05:54:02;22.50;70.10
12977;DHT22;6553;48.412;9.514;2022-09-09T05:56:31;22.50;70.10
12977;DHT22;6553;48.412;9.514;2022-09-09T05:58:58;22.50;70.10
12977;DHT22;6553;48.412;9.514;2022-09-09T06:01:28;22.50;70.20
12977;DHT22;6553;48.412;9.514;2022-09-09T06:04:00;22.50;70.10
12977;DHT22;6553;48.412;9.514;2022-09-09T06:06:31;22.50;70.20
12977;DHT22;6553;48.412;9.514;2022-09-09T06:09:03;22.50;70.20
12977;DHT22;6553;48.412;9.514;2022-09-09T06:11:35;22.50;70.10
12977;DHT22;6553;48.412;9.514;2022-09-09T06:14:03;22.50;70.20
12977;DHT22;6553;48.412;9.514;2022-09-09T06:16:31;22.50;70.20
12977;DHT22;6553;48.412;9.514;2022-09-09T06:18:58;22.50;70.20
12977;DHT22;6553;48.412;9.514;2022-09-09T06:21:31;22.60;70.30
12977;DHT22;6553;48.412;9.514;2022-09-09T06:24:01;22.60;70.30
12977;DHT22;6553;48.412;9.514;2022-09-09T06:26:30;22.60;70.30
12977;DHT22;6553;48.412;9.514;2022-09-09T06:29:00;22.50;70.30
12977;DHT22;6553;48.412;9.514;2022-09-09T06:31:30;22.50;70.30
12977;DHT22;6553;48.412;9.514;2022-09-09T06:34:05;22.60;70.40
12977;DHT22;6553;48.412;9.514;2022-09-09T06:36:37;22.50;70.30
12977;DHT22;6553;48.412;9.514;2022-09-09T06:39:05;22.60;70.50
12977;DHT22;6553;48.412;9.514;2022-09-09T06:41:33;22.60;70.50
12977;DHT22;6553;48.412;9.514;2022-09-09T06:44:00;22.60;70.50
12977;DHT22;6553;48.412;9.514;2022-09-09T06:46:37;22.60;70.50
12977;DHT22;6553;48.412;9.514;2022-09-09T06:49:04;22.60;70.50
12977;DHT22;6553;48.412;9.514;2022-09-09T06:51:33;22.60;70.50
12977;DHT22;6553;48.412;9.514;2022-09-09T06:54:03;22.60;70.50
12977;DHT22;6553;48.412;9.514;2022-09-09T06:56:36;22.60;70.50
12977;DHT22;6553;48.412;9.514;2022-09-09T06:59:09;22.60;70.50
12977;DHT22;6553;48.412;9.514;2022-09-09T07:01:39;22.60;70.50
12977;DHT22;6553;48.412;9.514;2022-09-09T07:04:10;22.60;70.50
12977;DHT22;6553;48.412;9.514;2022-09-09T07:06:41;22.60;70.60
12977;DHT22;6553;48.412;9.514;2022-09-09T07:09:15;22.70;70.70
12977;DHT22;6553;48.412;9.514;2022-09-09T07:11:46;22.60;70.50
12977;DHT22;6553;48.412;9.514;2022-09-09T07:14:19;22.60;70.50
12977;DHT22;6553;48.412;9.514;2022-09-09T07:16:48;22.60;70.60
12977;DHT22;6553;48.412;9.514;2022-09-09T07:19:16;22.60;70.60
12977;DHT22;6553;48.412;9.514;2022-09-09T07:21:43;22.60;70.60
12977;DHT22;6553;48.412;9.514;2022-09-09T07:24:12;22.70;70.80
12977;DHT22;6553;48.412;9.514;2022-09-09T07:26:40;22.60;70.60
12977;DHT22;6553;48.412;9.514;2022-09-09T07:29:07;22.70;70.80
12977;DHT22;6553;48.412;9.514;2022-09-09T07:31:36;22.60;70.70
12977;DHT22;6553;48.412;9.514;2022-09-09T07:34:08;22.60;70.70
12977;DHT22;6553;48.412;9.514;2022-09-09T07:36:36;22.70;70.90
12977;DHT22;6553;48.412;9.514;2022-09-09T07:39:07;22.60;70.80
12977;DHT22;6553;48.412;9.514;2022-09-09T07:41:45;22.70;70.90
12977;DHT22;6553;48.412;9.514;2022-09-09T07:44:19;22.70;71.00
12977;DHT22;6553;48.412;9.514;2022-09-09T07:47:10;22.70;70.90
12977;DHT22;6553;48.412;9.514;2022-09-09T07:49:40;22.70;70.80
12977;DHT22;6553;48.412;9.514;2022-09-09T07:52:07;22.70;70.80
12977;DHT22;6553;48.412;9.514;2022-09-09T07:54:34;22.70;70.90
12977;DHT22;6553;48.412;9.514;2022-09-09T07:57:03;22.80;70.90
12977;DHT22;6553;48.412;9.514;2022-09-09T07:59:31;22.70;71.00
12977;DHT22;6553;48.412;9.514;2022-09-09T08:01:58;22.70;71.10
12977;DHT22;6553;48.412;9.514;2022-09-09T08:04:27;22.70;71.00
12977;DHT22;6553;48.412;9.514;2022-09-09T08:06:59;22.70;71.10
12977;DHT22;6553;48.412;9.514;2022-09-09T08:09:27;22.70;71.20
12977;DHT22;6553;48.412;9.514;2022-09-09T08:11:59;22.70;71.10
12977;DHT22;6553;48.412;9.514;2022-09-09T08:14:26;22.80;71.10
12977;DHT22;6553;48.412;9.514;2022-09-09T08:16:53;22.70;71.10
12977;DHT22;6553;48.412;9.514;2022-09-09T08:19:22;22.80;71.10
12977;DHT22;6553;48.412;9.514;2022-09-09T08:21:49;22.80;71.10
12977;DHT22;6553;48.412;9.514;2022-09-09T08:24:15;22.80;71.10
12977;DHT22;6553;48.412;9.514;2022-09-09T08:26:47;22.70;71.10
12977;DHT22;6553;48.412;9.514;2022-09-09T08:29:20;22.80;71.10
12977;DHT22;6553;48.412;9.514;2022-09-09T08:31:52;22.80;71.20
12977;DHT22;6553;48.412;9.514;2022-09-09T08:34:22;22.80;71.20
12977;DHT22;6553;48.412;9.514;2022-09-09T08:36:50;22.80;71.20
12977;DHT22;6553;48.412;9.514;2022-09-09T08:39:21;22.80;71.10
12977;DHT22;6553;48.412;9.514;2022-09-09T08:42:08;22.80;71.20
12977;DHT22;6553;48.412;9.514;2022-09-09T08:45:02;22.80;71.20
12977;DHT22;6553;48.412;9.514;2022-09-09T08:47:55;22.80;71.20
12977;DHT22;6553;48.412;9.514;2022-09-09T08:50:38;22.80;71.10
12977;DHT22;6553;48.412;9.514;2022-09-09T08:53:20;22.80;71.20
12977;DHT22;6553;48.412;9.514;2022-09-09T08:56:08;22.80;71.20
12977;DHT22;6553;48.412;9.514;2022-09-09T08:58:49;22.80;71.10
12977;DHT22;6553;48.412;9.514;2022-09-09T09:04:56;22.80;71.10
12977;DHT22;6553;48.412;9.514;2022-09-09T09:10:43;22.80;71.20
12977;DHT22;6553;48.412;9.514;2022-09-09T09:19:14;22.90;71.20
12977;DHT22;6553;48.412;9.514;2022-09-09T09:21:44;22.80;71.00
12977;DHT22;6553;48.412;9.514;2022-09-09T09:24:23;22.80;71.00
12977;DHT22;6553;48.412;9.514;2022-09-09T09:27:00;22.80;71.00
12977;DHT22;6553;48.412;9.514;2022-09-09T09:29:38;22.90;71.20
12977;DHT22;6553;48.412;9.514;2022-09-09T09:32:11;22.80;71.20
12977;DHT22;6553;48.412;9.514;2022-09-09T09:34:41;22.80;71.20
12977;DHT22;6553;48.412;9.514;2022-09-09T09:37:23;22.80;71.10
12977;DHT22;6553;48.412;9.514;2022-09-09T09:39:53;22.90;71.20
12977;DHT22;6553;48.412;9.514;2022-09-09T09:42:19;22.90;71.50
12977;DHT22;6553;48.412;9.514;2022-09-09T09:44:47;22.90;71.30
12977;DHT22;6553;48.412;9.514;2022-09-09T09:47:21;22.90;71.30
12977;DHT22;6553;48.412;9.514;2022-09-09T09:50:02;22.90;71.30
12977;DHT22;6553;48.412;9.514;2022-09-09T09:52:33;22.90;71.30
12977;DHT22;6553;48.412;9.514;2022-09-09T09:55:04;22.90;71.30
12977;DHT22;6553;48.412;9.514;2022-09-09T09:57:38;22.90;71.30
12977;DHT22;6553;48.412;9.514;2022-09-09T10:00:20;22.90;71.20
12977;DHT22;6553;48.412;9.514;2022-09-09T10:03:00;22.90;71.20
12977;DHT22;6553;48.412;9.514;2022-09-09T10:05:30;22.90;71.30
12977;DHT22;6553;48.412;9.514;2022-09-09T10:10:38;22.90;71.20
12977;DHT22;6553;48.412;9.514;2022-09-09T10:13:22;22.90;71.20
12977;DHT22;6553;48.412;9.514;2022-09-09T10:16:47;22.90;71.00
12977;DHT22;6553;48.412;9.514;2022-09-09T10:19:06;22.90;71.10
12977;DHT22;6553;48.412;9.514;2022-09-09T10:21:42;22.90;71.10
12977;DHT22;6553;48.412;9.514;2022-09-09T10:24:53;22.90;71.20
12977;DHT22;6553;48.412;9.514;2022-09-09T10:33:07;22.90;71.10
12977;DHT22;6553;48.412;9.514;2022-09-09T10:35:42;22.90;70.80
12977;DHT22;6553;48.412;9.514;2022-09-09T10:38:29;22.90;70.70
12977;DHT22;6553;48.412;9.514;2022-09-09T10:41:16;22.90;70.80
12977;DHT22;6553;48.412;9.514;2022-09-09T10:44:24;22.90;70.90
12977;DHT22;6553;48.412;9.514;2022-09-09T10:47:36;22.90;70.70
12977;DHT22;6553;48.412;9.514;2022-09-09T10:53:47;22.90;70.70
12977;DHT22;6553;48.412;9.514;2022-09-09T10:56:22;22.90;70.50
12977;DHT22;6553;48.412;9.514;2022-09-09T10:59:13;22.90;70.30
12977;DHT22;6553;48.412;9.514;2022-09-09T11:01:44;22.90;70.40
12977;DHT22;6553;48.412;9.514;2022-09-09T11:04:29;22.90;70.30
12977;DHT22;6553;48.412;9.514;2022-09-09T11:07:06;23.00;70.20
12977;DHT22;6553;48.412;9.514;2022-09-09T11:09:40;22.90;70.00
12977;DHT22;6553;48.412;9.514;2022-09-09T11:12:18;22.90;70.10
12977;DHT22;6553;48.412;9.514;2022-09-09T11:14:54;22.90;70.10
12977;DHT22;6553;48.412;9.514;2022-09-09T11:17:35;22.90;69.90
12977;DHT22;6553;48.412;9.514;2022-09-09T11:20:06;22.90;69.90
12977;DHT22;6553;48.412;9.514;2022-09-09T11:25:25;23.00;69.90
12977;DHT22;6553;48.412;9.514;2022-09-09T11:40:14;22.90;69.50
12977;DHT22;6553;48.412;9.514;2022-09-09T11:42:45;22.90;69.30
12977;DHT22;6553;48.412;9.514;2022-09-09T11:45:26;22.90;70.30
12977;DHT22;6553;48.412;9.514;2022-09-09T11:47:59;22.90;70.00
12977;DHT22;6553;48.412;9.514;2022-09-09T11:50:35;23.00;69.60
12977;DHT22;6553;48.412;9.514;2022-09-09T11:53:20;22.90;69.60
12977;DHT22;6553;48.412;9.514;2022-09-09T11:55:59;22.90;69.20
12977;DHT22;6553;48.412;9.514;2022-09-09T11:58:37;22.90;69.20
12977;DHT22;6553;48.412;9.514;2022-09-09T12:01:38;22.90;68.90
12977;DHT22;6553;48.412;9.514;2022-09-09T12:04:39;22.90;68.80
12977;DHT22;6553;48.412;9.514;2022-09-09T12:09:39;22.90;68.30
12977;DHT22;6553;48.412;9.514;2022-09-09T12:19:40;22.90;68.40
12977;DHT22;6553;48.412;9.514;2022-09-09T12:22:41;23.00;68.40
12977;DHT22;6553;48.412;9.514;2022-09-09T12:30:45;22.90;67.80
12977;DHT22;6553;48.412;9.514;2022-09-09T12:33:18;22.90;68.00
12977;DHT22;6553;48.412;9.514;2022-09-09T12:35:49;22.90;68.10
12977;DHT22;6553;48.412;9.514;2022-09-09T12:38:40;22.90;68.10
12977;DHT22;6553;48.412;9.514;2022-09-09T12:41:22;23.00;68.00
12977;DHT22;6553;48.412;9.514;2022-09-09T12:43:50;23.00;68.10
12977;DHT22;6553;48.412;9.514;2022-09-09T12:46:41;23.00;67.60
12977;DHT22;6553;48.412;9.514;2022-09-09T12:49:26;22.90;67.80
12977;DHT22;6553;48.412;9.514;2022-09-09T12:51:52;22.90;67.80
12977;DHT22;6553;48.412;9.514;2022-09-09T12:54:19;23.00;68.10
12977;DHT22;6553;48.412;9.514;2022-09-09T12:56:46;22.90;67.40
12977;DHT22;6553;48.412;9.514;2022-09-09T12:59:26;22.90;67.40
12977;DHT22;6553;48.412;9.514;2022-09-09T13:02:00;22.90;67.40
12977;DHT22;6553;48.412;9.514;2022-09-09T13:04:26;23.00;67.70
12977;DHT22;6553;48.412;9.514;2022-09-09T13:06:52;22.90;67.60
12977;DHT22;6553;48.412;9.514;2022-09-09T13:09:19;22.90;67.80
12977;DHT22;6553;48.412;9.514;2022-09-09T13:11:52;23.00;68.10
12977;DHT22;6553;48.412;9.514;2022-09-09T13:14:30;23.00;68.00
12977;DHT22;6553;48.412;9.514;2022-09-09T13:17:02;22.90;67.20
12977;DHT22;6553;48.412;9.514;2022-09-09T13:19:35;22.90;67.20
12977;DHT22;6553;48.412;9.514;2022-09-09T13:22:21;23.00;67.70
12977;DHT22;6553;48.412;9.514;2022-09-09T13:24:46;22.90;67.60
12977;DHT22;6553;48.412;9.514;2022-09-09T13:29:59;22.90;67.60
12977;DHT22;6553;48.412;9.514;2022-09-09T13:32:27;22.90;67.50
12977;DHT22;6553;48.412;9.514;2022-09-09T13:34:58;22.90;67.80
12977;DHT22;6553;48.412;9.514;2022-09-09T13:37:37;22.90;67.70
12977;DHT22;6553;48.412;9.514;2022-09-09T13:40:17;23.00;67.60
12977;DHT22;6553;48.412;9.514;2022-09-09T13:42:47;22.90;67.40
12977;DHT22;6553;48.412;9.514;2022-09-09T13:45:23;22.90;67.60
12977;DHT22;6553;48.412;9.514;2022-09-09T13:47:54;22.90;67.40
12977;DHT22;6553;48.412;9.514;2022-09-09T13:50:22;22.90;67.60
12977;DHT22;6553;48.412;9.514;2022-09-09T13:52:51;22.90;67.70
12977;DHT22;6553;48.412;9.514;2022-09-09T13:55:19;22.90;67.60
12977;DHT22;6553;48.412;9.514;2022-09-09T13:58:01;22.90;67.60
12977;DHT22;6553;48.412;9.514;2022-09-09T14:00:33;22.90;67.60
12977;DHT22;6553;48.412;9.514;2022-09-09T14:03:00;22.90;67.70
12977;DHT22;6553;48.412;9.514;2022-09-09T14:05:30;22.90;67.70
12977;DHT22;6553;48.412;9.514;2022-09-09T14:07:58;22.90;67.20
12977;DHT22;6553;48.412;9.514;2022-09-09T14:10:25;22.90;67.30
12977;DHT22;6553;48.412;9.514;2022-09-09T14:12:51;23.00;67.20
12977;DHT22;6553;48.412;9.514;2022-09-09T14:15:18;23.00;67.00
12977;DHT22;6553;48.412;9.514;2022-09-09T14:17:44;23.00;67.00
12977;DHT22;6553;48.412;9.514;2022-09-09T14:20:10;23.00;67.20
12977;DHT22;6553;48.412;9.514;2022-09-09T14:22:37;22.90;66.80
12977;DHT22;6553;48.412;9.514;2022-09-09T14:25:05;23.00;66.80
12977;DHT22;6553;48.412;9.514;2022-09-09T14:27:31;23.00;66.60
12977;DHT22;6553;48.412;9.514;2022-09-09T14:29:58;23.00;66.60
12977;DHT22;6553;48.412;9.514;2022-09-09T14:32:25;23.00;67.00
12977;DHT22;6553;48.412;9.514;2022-09-09T14:34:52;23.00;66.90
12977;DHT22;6553;48.412;9.514;2022-09-09T14:37:18;23.00;67.90
12977;DHT22;6553;48.412;9.514;2022-09-09T14:39:44;22.90;67.00
12977;DHT22;6553;48.412;9.514;2022-09-09T14:42:12;23.00;66.90
12977;DHT22;6553;48.412;9.514;2022-09-09T14:44:38;23.00;66.90
12977;DHT22;6553;48.412;9.514;2022-09-09T14:47:05;23.00;67.10
12977;DHT22;6553;48.412;9.514;2022-09-09T14:49:31;22.90;66.90
12977;DHT22;6553;48.412;9.514;2022-09-09T14:51:57;23.00;66.50
12977;DHT22;6553;48.412;9.514;2022-09-09T14:54:22;23.00;67.10
12977;DHT22;6553;48.412;9.514;2022-09-09T14:56:49;23.00;66.60
12977;DHT22;6553;48.412;9.514;2022-09-09T14:59:14;23.00;66.00
12977;DHT22;6553;48.412;9.514;2022-09-09T15:01:40;23.00;66.20
12977;DHT22;6553;48.412;9.514;2022-09-09T15:04:06;22.90;66.10
12977;DHT22;6553;48.412;9.514;2022-09-09T15:06:35;22.90;66.10
12977;DHT22;6553;48.412;9.514;2022-09-09T15:09:04;23.00;65.80
12977;DHT22;6553;48.412;9.514;2022-09-09T15:11:34;22.90;65.80
12977;DHT22;6553;48.412;9.514;2022-09-09T15:14:03;23.00;66.30
12977;DHT22;6553;48.412;9.514;2022-09-09T15:16:30;23.00;66.00
12977;DHT22;6553;48.412;9.514;2022-09-09T15:18:59;22.90;66.00
12977;DHT22;6553;48.412;9.514;2022-09-09T15:21:29;22.90;65.70
12977;DHT22;6553;48.412;9.514;2022-09-09T15:23:57;23.00;66.00
12977;DHT22;6553;48.412;9.514;2022-09-09T15:26:25;22.90;66.00
12977;DHT22;6553;48.412;9.514;2022-09-09T15:28:53;22.90;66.10
12977;DHT22;6553;48.412;9.514;2022-09-09T15:31:22;22.90;66.00
12977;DHT22;6553;48.412;9.514;2022-09-09T15:33:55;22.90;65.80
12977;DHT22;6553;48.412;9.514;2022-09-09T15:39:06;23.00;65.40
12977;DHT22;6553;48.412;9.514;2022-09-09T15:41:38;23.00;65.40
12977;DHT22;6553;48.412;9.514;2022-09-09T15:44:05;22.90;65.50
12977;DHT22;6553;48.412;9.514;2022-09-09T15:49:16;22.90;65.50
12977;DHT22;6553;48.412;9.514;2022-09-09T15:51:52;22.90;65.70
12977;DHT22;6553;48.412;9.514;2022-09-09T15:54:21;22.90;65.80
12977;DHT22;6553;48.412;9.514;2022-09-09T15:56:53;22.90;65.60
12977;DHT22;6553;48.412;9.514;2022-09-09T15:59:25;22.90;65.80
12977;DHT22;6553;48.412;9.514;2022-09-09T16:01:53;22.90;65.90
12977;DHT22;6553;48.412;9.514;2022-09-09T16:04:21;22.90;65.60
12977;DHT22;6553;48.412;9.514;2022-09-09T16:06:56;22.90;65.20
12977;DHT22;6553;48.412;9.514;2022-09-09T16:09:27;22.90;65.00
12977;DHT22;6553;48.412;9.514;2022-09-09T16:11:56;22.90;64.60
12977;DHT22;6553;48.412;9.514;2022-09-09T16:14:24;22.90;65.00
12977;DHT22;6553;48.412;9.514;2022-09-09T16:16:50;22.90;64.60
12977;DHT22;6553;48.412;9.514;2022-09-09T16:19:17;22.90;65.70
12977;DHT22;6553;48.412;9.514;2022-09-09T16:21:48;22.90;65.00
12977;DHT22;6553;48.412;9.514;2022-09-09T16:24:17;22.90;64.90
12977;DHT22;6553;48.412;9.514;2022-09-09T16:26:46;22.90;65.20
12977;DHT22;6553;48.412;9.514;2022-09-09T16:29:15;22.90;65.20
12977;DHT22;6553;48.412;9.514;2022-09-09T16:31:44;22.90;65.30
12977;DHT22;6553;48.412;9.514;2022-09-09T16:34:12;22.90;65.20
12977;DHT22;6553;48.412;9.514;2022-09-09T16:36:40;22.90;65.50
12977;DHT22;6553;48.412;9.514;2022-09-09T16:39:12;22.90;65.10
12977;DHT22;6553;48.412;9.514;2022-09-09T16:41:41;22.90;64.90
12977;DHT22;6553;48.412;9.514;2022-09-09T16:44:10;22.90;65.10
12977;DHT22;6553;48.412;9.514;2022-09-09T16:46:39;22.90;64.80
12977;DHT22;6553;48.412;9.514;2022-09-09T16:49:12;22.90;64.40
12977;DHT22;6553;48.412;9.514;2022-09-09T16:51:45;22.90;64.00
12977;DHT22;6553;48.412;9.514;2022-09-09T16:54:13;22.90;64.30
12977;DHT22;6553;48.412;9.514;2022-09-09T16:56:42;22.90;64.10
12977;DHT22;6553;48.412;9.514;2022-09-09T16:59:17;22.90;64.50
12977;DHT22;6553;48.412;9.514;2022-09-09T17:01:47;22.90;64.40
12977;DHT22;6553;48.412;9.514;2022-09-09T17:04:17;22.90;64.60
12977;DHT22;6553;48.412;9.514;2022-09-09T17:06:53;22.90;64.90
12977;DHT22;6553;48.412;9.514;2022-09-09T17:09:21;22.90;64.80
12977;DHT22;6553;48.412;9.514;2022-09-09T17:11:48;22.90;64.90
12977;DHT22;6553;48.412;9.514;2022-09-09T17:14:18;22.90;65.00
12977;DHT22;6553;48.412;9.514;2022-09-09T17:16:45;22.90;64.80
12977;DHT22;6553;48.412;9.514;2022-09-09T17:19:12;22.90;65.40
12977;DHT22;6553;48.412;9.514;2022-09-09T17:21:39;22.80;64.20
12977;DHT22;6553;48.412;9.514;2022-09-09T17:24:05;22.80;64.40
12977;DHT22;6553;48.412;9.514;2022-09-09T17:26:32;22.80;64.00
12977;DHT22;6553;48.412;9.514;2022-09-09T17:28:59;22.90;64.30
12977;DHT22;6553;48.412;9.514;2022-09-09T17:31:27;22.80;63.90
12977;DHT22;6553;48.412;9.514;2022-09-09T17:33:55;22.90;64.00
12977;DHT22;6553;48.412;9.514;2022-09-09T17:36:29;22.80;64.00
12977;DHT22;6553;48.412;9.514;2022-09-09T17:38:58;22.80;64.20
12977;DHT22;6553;48.412;9.514;2022-09-09T17:41:33;22.80;64.20
12977;DHT22;6553;48.412;9.514;2022-09-09T17:44:00;22.80;64.40
12977;DHT22;6553;48.412;9.514;2022-09-09T17:46:27;22.80;64.40
12977;DHT22;6553;48.412;9.514;2022-09-09T17:48:57;22.80;64.50
12977;DHT22;6553;48.412;9.514;2022-09-09T17:51:27;22.80;64.40
12977;DHT22;6553;48.412;9.514;2022-09-09T17:54:06;22.80;64.20
12977;DHT22;6553;48.412;9.514;2022-09-09T17:56:35;22.90;64.20
12977;DHT22;6553;48.412;9.514;2022-09-09T17:59:03;22.80;64.00
12977;DHT22;6553;48.412;9.514;2022-09-09T18:01:31;22.80;64.00
12977;DHT22;6553;48.412;9.514;2022-09-09T18:04:01;22.80;64.10
12977;DHT22;6553;48.412;9.514;2022-09-09T18:06:34;22.80;64.00
12977;DHT22;6553;48.412;9.514;2022-09-09T18:09:06;22.80;63.90